Time;durP1;ratioP1;P1;durP2;ratioP2;P2;SDS_P1;SDS_P2;PMS_P1;PMS_P2;Temp;Humidity;BMP_temperature;BMP_pressure;BME280_temperature;BME280_humidity;BME280_pressure;Samples;Min_cycle;Max_cycle;Signal;HPM_P1;HPM_P2
2023/05/20 00:01:16;;;;;;;18.23;14.57;;;11.10;99.90;;;;;;5034465;28;20075;-55
2023/05/20 00:03:42;;;;;;;18.20;15.90;;;11.10;99.90;;;;;;5034235;28;20037;-57
2023/05/20 00:06:07;;;;;;;16.67;14.82;;;11.10;99.90;;;;;;5034310;28;20053;-59
2023/05/20 00:08:33;;;;;;;17.90;15.75;;;11.10;99.90;;;;;;5034308;28;20420;-59
2023/05/20 00:10:58;;;;;;;18.17;15.77;;;11.10;99.90;;;;;;5034305;28;20109;-58
2023/05/20 00:13:24;;;;;;;17.98;15.73;;;11.10;99.90;;;;;;5033808;28;20029;-57
2023/05/20 00:15:51;;;;;;;20.33;14.98;;;11.10;99.90;;;;;;5033719;28;20033;-58
2023/05/20 00:18:17;;;;;;;20.90;15.93;;;11.10;99.90;;;;;;5032718;28;20112;-58
2023/05/20 00:20:43;;;;;;;21.85;15.07;;;11.10;99.90;;;;;;5033526;28;20124;-58
2023/05/20 00:23:08;;;;;;;16.30;14.05;;;11.10;99.90;;;;;;5033935;28;20109;-59
2023/05/20 00:25:34;;;;;;;19.30;14.65;;;11.10;99.90;;;;;;5032656;28;20469;-59
2023/05/20 00:27:59;;;;;;;22.80;14.15;;;11.10;99.90;;;;;;5034200;28;20029;-59
2023/05/20 00:30:25;;;;;;;16.67;14.88;;;11.10;99.90;;;;;;5033775;28;20535;-59
2023/05/20 00:32:51;;;;;;;18.65;15.50;;;11.00;99.90;;;;;;5033907;28;20026;-57
2023/05/20 00:35:16;;;;;;;15.63;13.35;;;11.00;99.90;;;;;;5033791;28;20033;-58
2023/05/20 00:37:42;;;;;;;18.83;13.63;;;11.00;99.90;;;;;;5033567;28;20368;-58
2023/05/20 00:40:08;;;;;;;35.45;15.20;;;11.00;99.90;;;;;;5032441;28;20029;-59
2023/05/20 00:42:34;;;;;;;15.57;13.75;;;11.00;99.90;;;;;;5033518;28;20033;-58
2023/05/20 00:44:59;;;;;;;25.77;15.10;;;11.00;99.90;;;;;;5033557;28;20422;-59
2023/05/20 00:47:31;;;;;;;19.33;14.80;;;10.90;99.90;;;;;;5033721;28;20100;-58
2023/05/20 00:49:57;;;;;;;18.60;14.35;;;11.00;99.90;;;;;;5031895;28;20423;-59
2023/05/20 00:52:24;;;;;;;18.85;15.63;;;10.90;99.90;;;;;;5033229;28;20040;-59
2023/05/20 00:54:51;;;;;;;20.67;16.50;;;10.90;99.90;;;;;;5033278;28;20087;-59
2023/05/20 00:57:18;;;;;;;16.83;14.98;;;10.90;99.90;;;;;;5033558;28;20029;-58
2023/05/20 00:59:44;;;;;;;16.45;14.55;;;10.90;99.90;;;;;;5033109;28;20112;-57
2023/05/20 01:02:10;;;;;;;18.88;14.35;;;10.90;99.90;;;;;;5032586;28;20553;-58
2023/05/20 01:04:36;;;;;;;19.77;14.57;;;10.90;99.90;;;;;;5031009;28;20025;-59
2023/05/20 01:07:04;;;;;;;21.38;14.00;;;10.90;99.90;;;;;;5032975;28;20028;-59
2023/05/20 01:09:31;;;;;;;19.35;15.27;;;10.90;99.90;;;;;;5033030;28;20113;-59
2023/05/20 01:12:29;;;;;;;19.63;15.73;;;10.90;99.90;;;;;;5032780;28;20555;-59
2023/05/20 01:15:04;;;;;;;21.20;14.98;;;10.90;99.90;;;;;;5032876;28;20484;-58
2023/05/20 01:17:31;;;;;;;17.67;15.00;;;10.80;99.90;;;;;;5033122;28;20021;-59
2023/05/20 01:19:58;;;;;;;18.35;16.08;;;10.80;99.90;;;;;;5032497;28;20036;-56
2023/05/20 01:22:28;;;;;;;19.98;16.23;;;10.80;99.90;;;;;;5032869;28;20037;-58
2023/05/20 01:24:54;;;;;;;22.05;15.43;;;10.80;99.90;;;;;;5032886;28;20045;-57
2023/05/20 01:27:21;;;;;;;21.45;15.77;;;10.80;99.90;;;;;;5032645;28;20021;-59
2023/05/20 01:29:51;;;;;;;18.15;15.63;;;10.80;99.90;;;;;;5032708;28;20032;-59
2023/05/20 01:32:33;;;;;;;17.30;14.63;;;10.70;99.90;;;;;;5031512;28;20481;-58
2023/05/20 01:35:00;;;;;;;20.73;15.35;;;10.70;99.90;;;;;;5020721;28;20060;-56
2023/05/20 01:37:27;;;;;;;17.90;14.32;;;10.70;99.90;;;;;;5032500;28;20025;-59
2023/05/20 01:39:55;;;;;;;19.10;15.27;;;10.60;99.90;;;;;;5031317;28;20069;-59
2023/05/20 01:42:58;;;;;;;25.17;16.73;;;10.60;99.90;;;;;;5031917;28;20104;-59
2023/05/20 01:45:24;;;;;;;21.00;15.93;;;10.50;99.90;;;;;;5032407;28;20018;-57
2023/05/20 01:47:50;;;;;;;17.67;15.27;;;10.50;99.90;;;;;;5032269;28;20100;-59
2023/05/20 01:50:16;;;;;;;26.02;17.88;;;10.50;99.90;;;;;;5032436;28;20108;-59
2023/05/20 01:52:41;;;;;;;21.02;14.98;;;10.50;99.90;;;;;;5032166;28;20448;-58
2023/05/20 01:55:08;;;;;;;18.67;14.88;;;10.50;99.90;;;;;;5030731;28;20029;-58
2023/05/20 01:57:33;;;;;;;21.73;16.48;;;10.50;99.90;;;;;;5032070;28;20083;-58
2023/05/20 01:59:59;;;;;;;18.30;16.38;;;10.50;99.90;;;;;;5031861;28;20026;-58
2023/05/20 02:02:24;;;;;;;22.63;16.00;;;10.50;99.90;;;;;;5030788;28;20072;-58
2023/05/20 02:04:52;;;;;;;19.08;16.30;;;10.50;99.90;;;;;;5032177;28;20029;-54
2023/05/20 02:07:18;;;;;;;23.45;17.98;;;10.50;99.90;;;;;;5032130;28;20064;-59
2023/05/20 02:09:44;;;;;;;20.33;15.60;;;10.50;99.90;;;;;;5032096;28;20053;-59
2023/05/20 02:12:16;;;;;;;21.35;16.67;;;10.40;99.90;;;;;;5030925;28;20025;-56
2023/05/20 02:14:44;;;;;;;18.40;15.50;;;10.50;99.90;;;;;;5030439;28;20476;-57
2023/05/20 02:17:09;;;;;;;21.65;17.25;;;10.50;99.90;;;;;;5031804;28;20037;-59
2023/05/20 02:19:35;;;;;;;19.70;15.30;;;10.50;99.90;;;;;;5031921;28;20527;-58
2023/05/20 02:22:00;;;;;;;24.38;16.20;;;10.50;99.90;;;;;;5031595;28;20075;-58
2023/05/20 02:24:26;;;;;;;22.75;15.80;;;10.50;99.90;;;;;;5031836;28;20682;-58
2023/05/20 02:26:53;;;;;;;18.95;15.45;;;10.50;99.90;;;;;;5031725;28;20038;-59
2023/05/20 02:29:20;;;;;;;22.35;16.25;;;10.50;99.90;;;;;;5031706;28;20018;-59
2023/05/20 02:31:47;;;;;;;16.13;14.18;;;10.50;99.90;;;;;;5031497;28;20033;-59
2023/05/20 02:34:14;;;;;;;18.05;16.05;;;10.50;99.90;;;;;;5031802;28;20068;-59
2023/05/20 02:36:41;;;;;;;20.77;15.43;;;10.50;99.90;;;;;;5031610;28;20133;-59
2023/05/20 02:39:06;;;;;;;19.83;15.85;;;10.50;99.90;;;;;;5031842;28;20022;-59
2023/05/20 02:41:32;;;;;;;21.15;16.90;;;10.50;99.90;;;;;;5031626;28;20032;-57
2023/05/20 02:43:58;;;;;;;21.15;15.95;;;10.50;99.90;;;;;;5031518;28;20703;-58
2023/05/20 02:46:23;;;;;;;21.73;16.33;;;10.50;99.90;;;;;;5031392;28;20036;-59
2023/05/20 02:48:49;;;;;;;24.13;18.77;;;10.50;99.90;;;;;;5030142;28;20163;-59
2023/05/20 02:51:15;;;;;;;21.00;17.67;;;10.40;99.90;;;;;;5031432;28;20420;-59
2023/05/20 02:53:40;;;;;;;27.52;18.05;;;10.40;99.90;;;;;;5032444;28;20029;-59
2023/05/20 02:56:07;;;;;;;22.83;17.48;;;10.40;99.90;;;;;;5035836;28;20053;-55
2023/05/20 02:58:34;;;;;;;21.08;17.75;;;10.40;99.90;;;;;;5034279;28;20040;-59
2023/05/20 03:01:00;;;;;;;23.13;19.70;;;10.40;99.90;;;;;;5035554;28;20017;-59
2023/05/20 03:03:26;;;;;;;19.40;17.05;;;10.30;99.90;;;;;;5035533;28;20432;-59
2023/05/20 03:05:52;;;;;;;24.58;19.92;;;10.40;99.90;;;;;;5035177;28;20075;-59
2023/05/20 03:08:20;;;;;;;22.88;18.45;;;10.40;99.90;;;;;;5035382;28;20045;-58
2023/05/20 03:10:46;;;;;;;23.63;19.30;;;10.40;99.90;;;;;;5035193;28;20026;-58
2023/05/20 03:13:14;;;;;;;27.83;20.95;;;10.40;99.90;;;;;;5035436;28;20026;-58
2023/05/20 03:15:45;;;;;;;25.15;19.33;;;10.40;99.90;;;;;;5035372;28;20116;-57
2023/05/20 03:18:12;;;;;;;26.42;21.05;;;10.40;99.90;;;;;;5035434;28;20018;-58
2023/05/20 03:20:38;;;;;;;29.48;21.88;;;10.40;99.90;;;;;;5034872;28;20037;-59
2023/05/20 03:23:05;;;;;;;29.58;22.73;;;10.40;99.90;;;;;;5033768;28;20095;-58
2023/05/20 03:25:30;;;;;;;34.40;22.90;;;10.40;99.90;;;;;;5035040;28;20099;-58
2023/05/20 03:27:59;;;;;;;31.38;21.23;;;10.40;99.90;;;;;;5034940;28;20025;-58
2023/05/20 03:30:25;;;;;;;32.75;23.52;;;10.40;99.90;;;;;;5035042;28;20029;-58
2023/05/20 03:32:51;;;;;;;29.77;21.88;;;10.40;99.90;;;;;;5034926;28;20024;-59
2023/05/20 03:35:17;;;;;;;29.77;22.88;;;10.40;99.90;;;;;;5035064;28;20064;-58
2023/05/20 03:37:43;;;;;;;25.90;19.63;;;10.40;99.90;;;;;;5033280;28;20065;-57
2023/05/20 03:40:09;;;;;;;27.70;21.58;;;10.40;99.90;;;;;;5034823;28;20030;-58
2023/05/20 03:42:36;;;;;;;27.40;21.98;;;10.40;99.90;;;;;;5033541;28;20469;-58
2023/05/20 03:45:01;;;;;;;27.42;20.67;;;10.40;99.90;;;;;;5034886;28;20025;-58
2023/05/20 03:47:27;;;;;;;27.27;21.30;;;10.50;99.90;;;;;;5034804;28;20029;-58
2023/05/20 03:49:53;;;;;;;26.52;20.05;;;10.50;99.90;;;;;;5034554;28;20380;-57
2023/05/20 03:52:19;;;;;;;29.27;21.98;;;10.50;99.90;;;;;;5034407;28;20030;-59
2023/05/20 03:54:45;;;;;;;26.70;21.60;;;10.40;99.90;;;;;;5034464;28;20029;-57
2023/05/20 03:57:11;;;;;;;26.42;21.67;;;10.50;99.90;;;;;;5034615;28;20022;-59
2023/05/20 03:59:37;;;;;;;28.08;22.17;;;10.50;99.90;;;;;;5033019;28;20032;-58
2023/05/20 04:02:03;;;;;;;30.45;23.25;;;10.40;99.90;;;;;;5033072;28;20029;-57
2023/05/20 04:04:29;;;;;;;33.78;22.30;;;10.50;99.90;;;;;;5034059;28;20025;-59
2023/05/20 04:06:55;;;;;;;30.23;23.02;;;10.50;99.90;;;;;;5034114;28;20036;-57
2023/05/20 04:09:21;;;;;;;31.92;23.48;;;10.50;99.90;;;;;;5033016;28;20018;-58
2023/05/20 04:11:47;;;;;;;29.38;23.77;;;10.60;99.90;;;;;;5034206;28;20100;-59
2023/05/20 04:14:14;;;;;;;35.10;24.58;;;10.70;99.90;;;;;;5034311;28;20032;-57
2023/05/20 04:16:40;;;;;;;29.35;21.92;;;10.70;99.90;;;;;;5034235;28;20017;-59
2023/05/20 04:19:06;;;;;;;28.63;23.88;;;10.70;99.90;;;;;;5034553;28;20029;-59
2023/05/20 04:21:32;;;;;;;33.95;22.70;;;10.70;99.90;;;;;;5033823;28;20041;-59
2023/05/20 04:23:57;;;;;;;34.08;25.27;;;10.70;99.90;;;;;;5034213;28;20966;-58
2023/05/20 04:26:23;;;;;;;36.60;23.63;;;10.80;99.90;;;;;;5034207;28;20109;-57
2023/05/20 04:28:49;;;;;;;35.70;24.48;;;10.90;99.90;;;;;;5034212;28;20025;-58
2023/05/20 04:31:15;;;;;;;31.92;22.25;;;10.90;99.90;;;;;;5033911;28;20372;-59
2023/05/20 04:33:41;;;;;;;31.88;24.45;;;11.00;99.90;;;;;;5033661;28;20079;-58
2023/05/20 04:36:10;;;;;;;32.08;21.92;;;11.10;99.90;;;;;;5014158;28;20026;-58
2023/05/20 04:38:36;;;;;;;34.13;22.65;;;11.10;99.90;;;;;;5013894;28;20022;-58
2023/05/20 04:41:02;;;;;;;28.33;22.88;;;11.10;99.90;;;;;;5014113;28;20030;-59
2023/05/20 04:43:29;;;;;;;26.75;23.15;;;11.20;99.90;;;;;;5014036;28;20389;-58
2023/05/20 04:46:04;;;;;;;32.72;24.27;;;11.20;99.90;;;;;;5013762;28;20029;-58
2023/05/20 04:48:31;;;;;;;30.38;23.10;;;11.30;99.90;;;;;;5014782;28;20070;-59
2023/05/20 04:50:56;;;;;;;36.67;24.05;;;11.30;99.90;;;;;;5033441;28;20041;-58
2023/05/20 04:53:22;;;;;;;32.95;23.45;;;11.30;99.90;;;;;;5033481;28;20022;-57
2023/05/20 04:55:52;;;;;;;30.50;21.95;;;11.40;99.90;;;;;;5033402;28;20042;-58
2023/05/20 04:58:18;;;;;;;25.27;21.95;;;11.40;99.90;;;;;;5033426;28;20512;-59
2023/05/20 05:00:51;;;;;;;27.67;22.83;;;11.50;99.90;;;;;;5033447;28;20473;-58
2023/05/20 05:03:17;;;;;;;31.67;23.45;;;11.50;99.90;;;;;;5032225;28;20029;-56
2023/05/20 05:05:43;;;;;;;29.80;21.60;;;11.60;99.90;;;;;;5033230;28;20461;-57
2023/05/20 05:08:12;;;;;;;29.30;22.27;;;11.70;99.90;;;;;;5033433;28;20028;-58
2023/05/20 05:10:38;;;;;;;25.80;21.10;;;11.70;99.90;;;;;;5033696;28;20041;-57
2023/05/20 05:13:04;;;;;;;27.73;21.35;;;11.80;99.90;;;;;;5033172;28;20034;-59
2023/05/20 05:15:29;;;;;;;26.85;20.83;;;11.90;99.90;;;;;;5032899;28;20029;-58
2023/05/20 05:17:55;;;;;;;26.73;21.17;;;11.90;99.90;;;;;;5032159;28;20030;-58
2023/05/20 05:20:21;;;;;;;26.90;22.17;;;12.00;99.90;;;;;;5032633;28;20428;-59
2023/05/20 05:22:49;;;;;;;28.67;21.15;;;12.00;99.90;;;;;;5032301;28;20091;-59
2023/05/20 05:25:15;;;;;;;23.45;19.98;;;12.00;99.90;;;;;;5032841;28;20453;-59
2023/05/20 05:27:41;;;;;;;26.15;21.58;;;12.10;99.90;;;;;;5032797;28;20104;-57
2023/05/20 05:30:07;;;;;;;31.23;21.92;;;12.10;99.90;;;;;;5031333;28;20741;-59
2023/05/20 05:32:33;;;;;;;29.95;21.85;;;12.10;99.90;;;;;;5032557;28;20385;-59
2023/05/20 05:34:59;;;;;;;29.38;21.40;;;12.20;99.70;;;;;;5032087;28;20030;-59
2023/05/20 05:37:25;;;;;;;27.73;22.42;;;12.20;99.50;;;;;;5032901;28;20037;-59
2023/05/20 05:39:51;;;;;;;27.75;21.88;;;12.30;99.10;;;;;;5032626;28;20372;-58
2023/05/20 05:42:16;;;;;;;23.23;20.27;;;12.30;99.30;;;;;;5032381;28;20057;-59
2023/05/20 05:44:43;;;;;;;27.50;20.63;;;12.50;98.00;;;;;;5031027;28;20116;-60
2023/05/20 05:47:08;;;;;;;23.60;19.50;;;12.50;97.30;;;;;;5031509;28;20100;-60
2023/05/20 05:49:34;;;;;;;24.08;19.23;;;12.60;96.40;;;;;;5032227;28;20052;-58
2023/05/20 05:52:00;;;;;;;27.42;22.05;;;12.60;95.90;;;;;;5032127;28;20018;-58
2023/05/20 05:54:25;;;;;;;23.67;20.05;;;12.70;96.60;;;;;;5032427;28;20107;-57
2023/05/20 05:56:51;;;;;;;23.45;19.23;;;12.70;96.60;;;;;;5032294;28;20088;-58
2023/05/20 05:59:17;;;;;;;24.73;19.05;;;12.80;94.50;;;;;;5032146;28;20346;-59
2023/05/20 06:01:43;;;;;;;31.80;20.70;;;12.90;94.50;;;;;;5031877;28;20037;-57
2023/05/20 06:04:08;;;;;;;22.52;19.83;;;13.10;94.30;;;;;;5031917;28;20021;-57
2023/05/20 06:06:36;;;;;;;23.58;18.58;;;13.20;90.80;;;;;;5031807;28;20477;-59
2023/05/20 06:09:02;;;;;;;20.27;17.33;;;13.20;91.50;;;;;;5032182;28;20033;-59
2023/05/20 06:11:27;;;;;;;20.88;16.63;;;13.50;87.80;;;;;;5031051;28;20021;-58
2023/05/20 06:13:53;;;;;;;22.42;17.00;;;13.60;75.20;;;;;;5032662;28;20112;-59
2023/05/20 06:16:19;;;;;;;18.05;16.17;;;13.70;76.00;;;;;;5031302;28;20116;-59
2023/05/20 06:18:51;;;;;;;22.67;16.30;;;13.90;74.80;;;;;;5031984;28;20041;-60
2023/05/20 06:21:17;;;;;;;18.25;15.40;;;14.00;74.00;;;;;;5031754;28;20124;-59
2023/05/20 06:23:43;;;;;;;17.52;15.35;;;14.20;60.30;;;;;;5031886;28;20125;-60
2023/05/20 06:26:09;;;;;;;22.77;15.30;;;14.20;49.70;;;;;;5031795;28;20029;-58
2023/05/20 06:28:34;;;;;;;23.02;19.30;;;14.20;55.20;;;;;;5031099;28;20623;-60
2023/05/20 06:31:00;;;;;;;19.60;15.25;;;14.30;48.40;;;;;;5030020;28;20686;-60
2023/05/20 06:33:27;;;;;;;18.15;15.20;;;14.30;46.20;;;;;;5030839;28;20389;-57
2023/05/20 06:35:54;;;;;;;25.92;15.55;;;14.40;48.60;;;;;;5030899;28;20022;-59
2023/05/20 06:38:19;;;;;;;17.13;14.38;;;14.60;30.80;;;;;;5031306;28;20026;-58
2023/05/20 06:40:47;;;;;;;25.17;16.38;;;14.50;37.00;;;;;;5031402;28;20079;-60
2023/05/20 06:43:13;;;;;;;18.95;15.20;;;14.50;31.70;;;;;;5029587;28;20028;-59
2023/05/20 06:45:39;;;;;;;19.67;15.30;;;14.60;34.80;;;;;;5031230;28;20013;-59
2023/05/20 06:48:06;;;;;;;19.52;16.25;;;14.50;33.90;;;;;;5031601;28;20021;-60
2023/05/20 06:50:32;;;;;;;20.77;15.77;;;14.50;32.50;;;;;;5030998;28;20584;-60
2023/05/20 06:52:57;;;;;;;20.30;15.30;;;14.50;40.80;;;;;;5031365;28;20058;-59
2023/05/20 06:55:23;;;;;;;20.00;16.13;;;14.60;40.70;;;;;;5031498;28;20034;-60
2023/05/20 06:57:49;;;;;;;19.60;16.27;;;14.70;23.10;;;;;;5031335;28;20025;-60
2023/05/20 07:00:14;;;;;;;19.98;16.88;;;14.60;34.30;;;;;;5031459;28;20516;-60
2023/05/20 07:02:41;;;;;;;25.50;16.90;;;14.80;27.10;;;;;;5031328;28;20080;-59
2023/05/20 07:05:07;;;;;;;21.02;16.17;;;14.80;36.60;;;;;;5030835;28;20080;-60
2023/05/20 07:07:32;;;;;;;22.58;16.50;;;14.90;20.10;;;;;;5020465;28;20029;-59
2023/05/20 07:09:58;;;;;;;19.23;16.13;;;14.90;16.40;;;;;;5011549;28;20014;-60
2023/05/20 07:12:24;;;;;;;21.52;16.40;;;14.90;16.00;;;;;;5027486;28;20366;-59
2023/05/20 07:14:50;;;;;;;20.70;16.50;;;14.90;21.10;;;;;;5031177;28;20104;-60
2023/05/20 07:17:15;;;;;;;22.88;16.33;;;15.00;21.80;;;;;;5036517;28;20632;-60
2023/05/20 07:19:41;;;;;;;18.50;14.77;;;15.20;31.00;;;;;;5050811;28;20029;-60
2023/05/20 07:22:07;;;;;;;19.52;15.63;;;15.40;2.80;;;;;;5050027;28;20033;-60
2023/05/20 07:24:33;;;;;;;17.75;14.82;;;15.60;1.00;;;;;;5030124;28;20373;-59
2023/05/20 07:26:58;;;;;;;16.40;14.32;;;15.80;1.00;;;;;;5030528;28;20034;-59
2023/05/20 07:29:24;;;;;;;20.63;15.93;;;16.00;1.00;;;;;;5030281;28;20025;-59
2023/05/20 07:31:50;;;;;;;15.35;13.70;;;16.20;1.00;;;;;;5030343;28;20034;-59
2023/05/20 07:34:15;;;;;;;17.92;14.88;;;16.30;1.00;;;;;;5030763;28;20473;-60
2023/05/20 07:36:42;;;;;;;19.17;13.07;;;16.40;1.00;;;;;;5030924;28;20026;-60
2023/05/20 07:39:09;;;;;;;26.25;14.13;;;16.40;1.00;;;;;;5030968;28;20562;-60
2023/05/20 07:41:38;;;;;;;18.58;13.27;;;16.40;1.00;;;;;;5032953;28;20370;-59
2023/05/20 07:44:04;;;;;;;44.72;32.30;;;16.40;1.00;;;;;;5033658;28;20018;-59
2023/05/20 07:46:30;;;;;;;23.73;16.83;;;16.40;1.00;;;;;;5034842;28;20029;-59
2023/05/20 07:48:56;;;;;;;19.42;13.65;;;16.50;1.00;;;;;;5033823;28;20032;-59
2023/05/20 07:51:22;;;;;;;21.17;15.27;;;16.70;1.00;;;;;;5034535;28;20064;-60
2023/05/20 07:53:47;;;;;;;19.52;13.80;;;16.60;1.00;;;;;;5033005;28;20040;-60
2023/05/20 07:56:13;;;;;;;24.83;17.38;;;16.70;1.00;;;;;;5034436;28;20029;-59
2023/05/20 07:58:40;;;;;;;16.17;14.45;;;16.70;1.00;;;;;;5034597;28;20108;-59
2023/05/20 08:01:08;;;;;;;31.08;18.77;;;16.90;1.00;;;;;;5034661;28;20025;-59
2023/05/20 08:03:34;;;;;;;18.80;15.38;;;17.10;1.00;;;;;;5034773;28;20108;-59
2023/05/20 08:06:00;;;;;;;18.42;14.52;;;17.20;1.00;;;;;;5034722;28;20025;-60
2023/05/20 08:08:27;;;;;;;25.73;13.32;;;17.20;1.00;;;;;;5034288;28;20033;-59
2023/05/20 08:10:53;;;;;;;37.25;14.18;;;17.20;1.00;;;;;;5034067;28;20018;-60
2023/05/20 08:13:19;;;;;;;43.38;16.20;;;17.30;1.00;;;;;;5033213;28;20025;-60
2023/05/20 08:15:44;;;;;;;15.60;12.95;;;17.40;1.00;;;;;;5034062;28;20022;-59
2023/05/20 08:18:10;;;;;;;18.15;13.30;;;17.60;1.00;;;;;;5033532;28;20504;-60
2023/05/20 08:20:36;;;;;;;15.45;13.55;;;17.80;99.90;;;;;;5032585;28;20045;-59
2023/05/20 08:23:02;;;;;;;24.08;14.45;;;17.90;99.90;;;;;;5033671;28;20030;-60
2023/05/20 08:25:28;;;;;;;23.02;13.23;;;17.70;99.90;;;;;;5033994;28;20026;-59
2023/05/20 08:27:54;;;;;;;16.38;12.40;;;17.70;99.90;;;;;;5033844;28;20014;-59
2023/05/20 08:30:20;;;;;;;16.95;12.77;;;17.90;99.90;;;;;;5033732;28;20029;-60
2023/05/20 08:32:47;;;;;;;14.52;12.40;;;17.90;99.90;;;;;;5033622;28;20528;-59
2023/05/20 08:35:13;;;;;;;25.58;12.93;;;18.30;99.90;;;;;;5033798;28;20047;-59
2023/05/20 08:37:38;;;;;;;29.23;13.68;;;18.60;99.90;;;;;;5033572;28;20481;-59
2023/05/20 08:40:05;;;;;;;18.88;12.77;;;18.70;99.90;;;;;;5033545;28;20044;-59
2023/05/20 08:42:30;;;;;;;18.85;12.38;;;18.90;99.90;;;;;;5032053;28;20033;-59
2023/05/20 08:44:57;;;;;;;15.82;12.52;;;18.90;99.90;;;;;;5032221;28;20040;-60
2023/05/20 08:47:24;;;;;;;14.70;11.75;;;18.80;1.00;;;;;;5033248;28;20032;-59
2023/05/20 08:49:49;;;;;;;21.17;11.38;;;18.70;99.90;;;;;;5032522;28;20541;-60
2023/05/20 08:52:19;;;;;;;20.50;11.05;;;18.90;1.00;;;;;;5021002;28;20042;-60
2023/05/20 08:54:48;;;;;;;13.52;10.60;;;19.20;1.00;;;;;;5030840;28;20477;-59
2023/05/20 08:57:14;;;;;;;16.40;12.13;;;19.50;39.30;;;;;;5032987;28;20104;-59
2023/05/20 08:59:44;;;;;;;18.10;12.25;;;19.60;99.90;;;;;;5032954;28;20061;-59
2023/05/20 09:02:10;;;;;;;21.80;13.50;;;19.40;99.90;;;;;;5032558;28;20109;-58
2023/05/20 09:04:36;;;;;;;16.20;12.07;;;19.40;1.00;;;;;;5045191;28;20440;-59
2023/05/20 09:07:03;;;;;;;17.85;11.60;;;19.40;99.90;;;;;;5032330;28;20117;-59
2023/05/20 09:09:33;;;;;;;18.70;11.98;;;19.70;99.90;;;;;;5032605;28;20034;-59
2023/05/20 09:12:01;;;;;;;17.33;10.07;;;20.00;99.90;;;;;;5032717;28;20522;-54
2023/05/20 09:14:28;;;;;;;11.48;9.98;;;20.20;41.00;;;;;;5032785;28;20037;-60
2023/05/20 09:16:54;;;;;;;15.75;12.23;;;20.40;41.50;;;;;;5032827;28;20029;-60
2023/05/20 09:19:22;;;;;;;13.25;10.75;;;20.40;99.90;;;;;;5032998;28;20029;-60
2023/05/20 09:21:47;;;;;;;15.02;9.77;;;20.60;11.00;;;;;;5032397;28;20401;-60
2023/05/20 09:24:13;;;;;;;15.45;10.90;;;20.40;99.90;;;;;;5032957;28;20049;-60
2023/05/20 09:26:38;;;;;;;15.45;10.13;;;20.10;99.90;;;;;;5032928;28;20053;-60
2023/05/20 09:29:04;;;;;;;13.70;11.38;;;20.40;1.00;;;;;;5031811;28;20021;-58
2023/05/20 09:31:32;;;;;;;16.95;10.60;;;20.40;99.90;;;;;;5031245;28;20366;-60
2023/05/20 09:33:59;;;;;;;13.32;9.95;;;20.40;28.50;;;;;;5032059;28;20117;-60
2023/05/20 09:36:29;;;;;;;15.05;10.38;;;20.60;99.90;;;;;;5032120;28;20022;-59
2023/05/20 09:38:59;;;;;;;16.17;10.30;;;20.80;1.00;;;;;;5029939;28;20124;-59
2023/05/20 09:41:32;;;;;;;12.07;9.88;;;20.60;29.40;;;;;;5032406;28;20029;-58
2023/05/20 09:43:58;;;;;;;;;;;20.70;1.00;;;;;;5030589;28;20021;-60
2023/05/20 09:46:26;;;;;;;18.38;10.13;;;21.00;1.00;;;;;;5022699;28;19913;-59
2023/05/20 09:48:52;;;;;;;12.70;10.63;;;21.10;99.90;;;;;;5017787;28;20037;-60
2023/05/20 09:51:20;;;;;;;13.52;10.65;;;21.40;99.90;;;;;;5031726;28;20048;-59
2023/05/20 09:53:45;;;;;;;11.25;10.02;;;21.50;29.50;;;;;;5032466;28;20029;-59
2023/05/20 09:56:11;;;;;;;19.52;10.68;;;21.60;1.00;;;;;;5032243;28;20031;-60
2023/05/20 09:58:39;;;;;;;14.85;9.60;;;21.90;99.90;;;;;;5031214;28;20569;-60
2023/05/20 10:01:06;;;;;;;11.27;9.35;;;22.10;99.90;;;;;;5031790;28;20350;-59
2023/05/20 10:03:32;;;;;;;11.55;9.27;;;22.30;16.20;;;;;;5030854;28;20101;-59
2023/05/20 10:06:37;;;;;;;19.65;10.05;;;22.70;1.00;;;;;;5031664;28;20013;-60
2023/05/20 10:09:21;;;;;;;;;;;22.60;1.00;;;;;;5032106;28;20025;-59
2023/05/20 10:12:11;;;;;;;14.32;9.60;;;22.80;99.90;;;;;;5031677;28;19936;-59
2023/05/20 10:14:55;;;;;;;16.80;8.30;;;22.70;99.90;;;;;;5031922;28;20021;-60
2023/05/20 10:17:26;;;;;;;14.85;8.73;;;22.60;1.00;;;;;;5032144;28;20013;-59
2023/05/20 10:19:58;;;;;;;14.57;9.80;;;22.50;1.00;;;;;;5031546;28;20041;-60
2023/05/20 10:22:32;;;;;;;11.77;8.50;;;22.10;1.00;;;;;;5032687;28;20087;-59
2023/05/20 10:25:00;;;;;;;51.95;10.63;;;22.10;1.00;;;;;;5031482;28;20025;-59
2023/05/20 10:27:26;;;;;;;13.32;8.98;;;22.40;1.00;;;;;;5031815;28;20075;-60
2023/05/20 10:29:54;;;;;;;8.77;7.88;;;22.60;1.00;;;;;;5031270;28;20024;-60
2023/05/20 10:32:27;;;;;;;35.83;11.48;;;22.70;1.00;;;;;;5030273;28;20708;-59
2023/05/20 10:34:57;;;;;;;;;;;23.10;99.90;;;;;;5032026;28;20075;-59
2023/05/20 10:37:28;;;;;;;13.27;8.25;;;23.10;1.00;;;;;;5031203;28;20007;-59
2023/05/20 10:40:07;;;;;;;12.25;8.20;;;23.30;99.90;;;;;;5032761;28;20083;-58
2023/05/20 10:42:32;;;;;;;10.73;8.13;;;23.00;99.90;;;;;;5031261;28;20084;-60
2023/05/20 10:44:58;;;;;;;18.02;8.95;;;23.10;99.90;;;;;;5030095;28;20022;-60
2023/05/20 10:47:24;;;;;;;11.35;9.45;;;22.90;99.90;;;;;;5030745;28;20215;-60
2023/05/20 10:53:13;;;;;;;10.65;7.88;;;22.80;99.90;;;;;;5031296;28;20372;-60
2023/05/20 10:55:40;;;;;;;10.20;7.70;;;23.10;99.90;;;;;;5029415;28;20033;-59
2023/05/20 10:58:06;;;;;;;11.70;8.20;;;22.90;1.00;;;;;;5030779;28;20024;-60
2023/05/20 11:00:36;;;;;;;10.63;8.05;;;23.20;1.00;;;;;;5029028;28;20036;-60
2023/05/20 11:03:04;;;;;;;10.40;7.50;;;23.20;1.00;;;;;;5029477;28;20033;-59
2023/05/20 11:05:30;;;;;;;9.15;7.35;;;23.40;99.90;;;;;;5028550;28;20022;-60
2023/05/20 11:08:03;;;;;;;7.80;7.00;;;23.60;1.00;;;;;;5029788;28;20025;-60
2023/05/20 11:10:30;;;;;;;10.90;7.88;;;23.60;1.00;;;;;;5028270;28;20063;-60
2023/05/20 11:12:56;;;;;;;14.80;8.13;;;23.70;1.00;;;;;;5028758;28;20125;-60
2023/05/20 11:15:25;;;;;;;10.68;7.45;;;23.60;99.90;;;;;;5032367;28;20470;-60
2023/05/20 11:17:56;;;;;;;17.92;8.05;;;23.20;1.00;;;;;;5033777;28;20448;-60
2023/05/20 11:20:23;;;;;;;13.65;8.18;;;22.90;1.00;;;;;;5033685;28;20124;-60
2023/05/20 11:22:52;;;;;;;10.02;8.40;;;22.90;1.00;;;;;;5032703;28;20033;-60
2023/05/20 11:25:19;;;;;;;10.85;7.75;;;23.20;1.00;;;;;;5033252;28;20082;-59
2023/05/20 11:27:45;;;;;;;12.43;7.93;;;23.10;1.00;;;;;;5032011;28;20026;-60
2023/05/20 11:30:17;;;;;;;10.02;7.43;;;23.30;1.00;;;;;;5033826;28;20109;-60
2023/05/20 11:33:03;;;;;;;11.00;7.65;;;23.40;1.00;;;;;;5033137;28;20096;-60
2023/05/20 11:35:31;;;;;;;13.10;8.50;;;23.40;1.00;;;;;;5033659;28;20447;-60
2023/05/20 11:38:08;;;;;;;12.32;8.35;;;23.40;1.00;;;;;;5033839;28;20097;-60
2023/05/20 11:40:34;;;;;;;10.95;8.55;;;23.50;85.00;;;;;;5033493;28;20499;-60
2023/05/20 11:43:01;;;;;;;13.57;7.78;;;23.70;1.00;;;;;;5032500;28;20025;-60
2023/05/20 11:45:51;;;;;;;16.67;9.40;;;23.80;1.00;;;;;;5032538;28;20080;-60
2023/05/20 11:48:18;;;;;;;13.07;8.45;;;23.90;1.00;;;;;;5033394;28;20021;-59
2023/05/20 11:50:45;;;;;;;15.15;7.90;;;23.60;1.00;;;;;;5033256;28;20036;-60
2023/05/20 11:53:19;;;;;;;40.88;8.88;;;23.70;1.00;;;;;;5033460;28;20014;-60
2023/05/20 11:55:50;;;;;;;9.00;6.85;;;23.70;1.00;;;;;;5033332;28;20417;-60
2023/05/20 11:58:18;;;;;;;12.05;7.60;;;23.80;1.00;;;;;;5033485;28;20079;-59
2023/05/20 12:00:45;;;;;;;14.65;8.23;;;23.50;1.00;;;;;;5033044;28;20025;-60
2023/05/20 12:03:11;;;;;;;12.10;7.35;;;23.60;1.00;;;;;;5033211;28;20109;-60
2023/05/20 12:05:37;;;;;;;13.55;7.93;;;23.70;99.90;;;;;;5033042;28;20074;-59
2023/05/20 12:08:03;;;;;;;10.25;6.82;;;23.80;99.90;;;;;;5033063;28;20046;-59
2023/05/20 12:10:29;;;;;;;12.98;7.68;;;24.00;99.90;;;;;;5032885;28;20037;-60
2023/05/20 12:12:55;;;;;;;13.77;7.90;;;24.20;99.90;;;;;;5032907;28;20071;-60
2023/05/20 12:15:21;;;;;;;14.38;7.38;;;24.00;99.90;;;;;;5032994;28;20064;-59
2023/05/20 12:17:51;;;;;;;13.25;7.43;;;24.50;99.90;;;;;;5031591;28;20038;-59
2023/05/20 12:20:20;;;;;;;10.63;7.78;;;25.30;99.90;;;;;;5032538;28;20041;-60
2023/05/20 12:22:46;;;;;;;10.40;6.53;;;25.70;99.90;;;;;;5032739;28;20057;-59
2023/05/20 12:25:14;;;;;;;8.43;6.75;;;26.20;99.90;;;;;;5032620;28;20484;-59
2023/05/20 12:27:40;;;;;;;10.82;7.38;;;26.20;53.80;;;;;;5032707;28;20034;-60
2023/05/20 12:30:08;;;;;;;12.02;7.20;;;25.90;65.90;;;;;;5032479;28;20025;-60
2023/05/20 12:32:37;;;;;;;11.88;6.78;;;25.70;99.90;;;;;;5031547;28;20623;-60
2023/05/20 12:35:03;;;;;;;10.80;7.43;;;25.70;99.90;;;;;;5032931;28;20534;-59
2023/05/20 12:37:29;;;;;;;8.40;7.00;;;25.10;95.80;;;;;;5032637;28;20025;-60